Alexandria, LA

6:43 AM CDT on October 01, 2016 (GMT -0500)
Charles Place | | Change Station

Elev 80 ft 31.28 °N, 92.49 °W | Updated 1 second ago

Partly Cloudy
Partly Cloudy
57.3 °F
Feels Like 57.3 °F
N
0.0
Wind Variable Wind from NNW
Gusts 1.0 mph

Today
High -- | Low -- °F
--% Chance of Precip.
Yesterday
High -- | Low -- °F
Precip. -- in
Pressure 30.08 in
Visibility 4.0 miles
Clouds Few 300 ft
Dew Point 56 °F
Humidity 96%
Rainfall 0.00 in
Snow Depth Not available.
7:03 AM 6:54 PM
New Moon, 0% visible
METAR KAEX 011053Z 00000KT 4SM BR FEW003 13/12 A3007 RMK AO2 SLP185 T01280122
Pressure 30.08 in
Visibility 4.0 miles
Clouds Few 300 ft
Dew Point 56 °F
Humidity 96%
Rainfall 0.00 in
Snow Depth Not available.
7:03 AM 6:54 PM
New Moon, 0% visible
METAR KAEX 011053Z 00000KT 4SM BR FEW003 13/12 A3007 RMK AO2 SLP185 T01280122

10-Day Weather Forecast

Almanac

Astronomy

Oct. 01, 2016 Rise Set
Actual Time
Civil Twilight
Nautical Twilight
Astronomical Twilight
Moon
Length of Visible Light
Length of Day
Tomorrow will be .
, % of the Moon is Illuminated

Today's Extremes

State Highs State Lows

Community

WunderPhotos

Upload Photos

1,942,905 photos uploaded!

WunderBlog® & News

Nearby

Air Quality

  Air Quality AQ Index Pollutant
Not available.

Snow Depth

Station Depth Elevation

Earthquake Activity

City Distance Mag. Time & Date
Minimum magnitude displayed is 2.5.

Coastal Water Temperatures

Place Temperature

Stations

Nearby Weather Stations

Station Location Temp. Windchill Dew Point Humidity Wind Precip. Elev Updated Type
                   

Watches & Warnings

There are currently no watches in effect.